Time;durP1;ratioP1;P1;durP2;ratioP2;P2;SDS_P1;SDS_P2;PMS_P1;PMS_P2;Temp;Humidity;BMP_temperature;BMP_pressure;BME280_temperature;BME280_humidity;BME280_pressure;Samples;Min_cycle;Max_cycle;Signal;HPM_P1;HPM_P2
2023/04/24 00:00:23;;;;;;;;;;;16.50;99.90;;;;;;4589967;19;19939;-22
2023/04/24 00:02:14;;;;;;;;;;;16.50;99.90;;;;;;4590286;19;19911;-22
2023/04/24 00:03:48;;;;;;;;;;;16.50;99.90;;;;;;4591265;19;20273;-22
2023/04/24 00:05:21;;;;;;;;;;;16.60;99.90;;;;;;4590189;19;19919;-21
2023/04/24 00:06:56;;;;;;;;;;;16.50;99.90;;;;;;4590464;19;20300;-21
2023/04/24 00:08:27;;;;;;;;;;;16.50;99.90;;;;;;4592550;19;19970;-21
2023/04/24 00:09:59;;;;;;;;;;;16.50;99.90;;;;;;4596150;19;19926;-21
2023/04/24 00:11:31;;;;;;;;;;;16.50;99.90;;;;;;4593963;19;19915;-22
2023/04/24 00:13:02;;;;;;;;;;;16.50;99.90;;;;;;4594629;19;19919;-21
2023/04/24 00:14:34;;;;;;;;;;;16.60;99.90;;;;;;4595665;19;20337;-21
2023/04/24 00:16:05;;;;;;;;;;;16.50;99.90;;;;;;4595548;19;19915;-21
2023/04/24 00:17:36;;;;;;;;;;;16.50;99.90;;;;;;4594685;19;19999;-22
2023/04/24 00:19:07;;;;;;;;;;;16.50;99.90;;;;;;4594398;19;19915;-22
2023/04/24 00:20:39;;;;;;;;;;;16.50;99.90;;;;;;4595460;19;19915;-22
2023/04/24 00:22:13;;;;;;;;;;;16.50;99.90;;;;;;4594194;19;20227;-21
2023/04/24 00:23:44;;;;;;;;;;;16.60;99.90;;;;;;4594820;19;19918;-21
2023/04/24 00:25:18;;;;;;;;;;;16.50;99.90;;;;;;4595502;19;19921;-21
2023/04/24 00:26:49;;;;;;;;;;;16.50;99.90;;;;;;4595521;19;19923;-21
2023/04/24 00:28:20;;;;;;;;;;;16.60;99.90;;;;;;4594312;19;19915;-21
2023/04/24 00:29:51;;;;;;;;;;;16.60;99.90;;;;;;4595189;19;19921;-22
2023/04/24 00:31:22;;;;;;;;;;;16.50;99.90;;;;;;4595274;19;19926;-21
2023/04/24 00:32:53;;;;;;;;;;;16.60;99.90;;;;;;4593798;19;19936;-21
2023/04/24 00:34:24;;;;;;;;;;;16.50;99.90;;;;;;4594780;19;19915;-22
2023/04/24 00:35:56;;;;;;;;;;;16.50;99.90;;;;;;4593970;19;19915;-22
2023/04/24 00:37:28;;;;;;;;;;;16.50;99.90;;;;;;4594747;19;19918;-21
2023/04/24 00:39:02;;;;;;;;;;;16.50;99.90;;;;;;4595121;19;19983;-21
2023/04/24 00:40:33;;;;;;;;;;;16.60;99.90;;;;;;4593589;19;19915;-21
2023/04/24 00:42:06;;;;;;;;;;;16.60;99.90;;;;;;4593916;19;19992;-22
2023/04/24 00:43:37;;;;;;;;;;;16.60;99.90;;;;;;4593390;19;19947;-21
2023/04/24 00:45:09;;;;;;;;;;;16.50;99.90;;;;;;4594899;19;19936;-21
2023/04/24 00:46:42;;;;;;;;;;;16.50;99.90;;;;;;4593196;19;19918;-21
2023/04/24 00:48:13;;;;;;;;;;;16.60;99.90;;;;;;4593734;19;20246;-22
2023/04/24 00:49:44;;;;;;;;;;;16.60;99.90;;;;;;4592253;19;19915;-21
2023/04/24 00:51:15;;;;;;;;;;;16.60;99.90;;;;;;4591105;19;19926;-21
2023/04/24 00:52:47;;;;;;;;;;;16.60;99.90;;;;;;4590834;19;19922;-21
2023/04/24 00:54:18;;;;;;;;;;;16.50;99.90;;;;;;4591950;19;19911;-22
2023/04/24 00:55:49;;;;;;;;;;;16.50;99.90;;;;;;4592270;19;19911;-21
2023/04/24 00:57:21;;;;;;;;;;;16.60;99.90;;;;;;4592119;19;20394;-23
2023/04/24 00:58:56;;;;;;;;;;;16.50;99.90;;;;;;4590759;19;19939;-22
2023/04/24 01:00:27;;;;;;;;;;;16.50;99.90;;;;;;4591620;19;20265;-21
2023/04/24 01:01:58;;;;;;;;;;;16.60;99.90;;;;;;4592158;19;19994;-21
2023/04/24 01:03:31;;;;;;;;;;;16.50;99.90;;;;;;4592097;19;20253;-22
2023/04/24 01:05:03;;;;;;;;;;;16.60;99.90;;;;;;4592091;19;19915;-23
2023/04/24 01:06:34;;;;;;;;;;;16.50;99.90;;;;;;4591553;19;19926;-21
2023/04/24 01:08:05;;;;;;;;;;;16.50;99.90;;;;;;4592018;19;19919;-21
2023/04/24 01:09:40;;;;;;;;;;;16.60;99.90;;;;;;4591600;19;19919;-21
2023/04/24 01:11:11;;;;;;;;;;;16.50;99.90;;;;;;4591948;19;20338;-21
2023/04/24 01:12:43;;;;;;;;;;;16.50;99.90;;;;;;4590673;19;19922;-21
2023/04/24 01:14:33;;;;;;;;;;;16.50;99.90;;;;;;4591544;19;19938;-21
2023/04/24 01:16:04;;;;;;;;;;;16.60;99.90;;;;;;4591717;19;20015;-21
2023/04/24 01:17:35;;;;;;;;;;;16.60;99.90;;;;;;4591904;19;19923;-20
2023/04/24 01:19:07;;;;;;;;;;;16.60;99.90;;;;;;4592243;19;19926;-21
2023/04/24 01:20:39;;;;;;;;;;;16.60;99.90;;;;;;4590844;19;19914;-21
2023/04/24 01:22:11;;;;;;;;;;;16.60;99.90;;;;;;4593452;19;19915;-21
2023/04/24 01:23:45;;;;;;;;;;;16.50;99.90;;;;;;4592884;19;19918;-21
2023/04/24 01:25:16;;;;;;;;;;;16.60;99.90;;;;;;4593634;19;19930;-21
2023/04/24 01:26:47;;;;;;;;;;;16.60;99.90;;;;;;4593201;19;19918;-22
2023/04/24 01:28:18;;;;;;;;;;;16.60;99.90;;;;;;4594000;19;19914;-23
2023/04/24 01:29:51;;;;;;;;;;;16.50;99.90;;;;;;4592695;19;19993;-21
2023/04/24 01:31:22;;;;;;;;;;;16.50;99.90;;;;;;4592241;19;19915;-25
2023/04/24 01:32:53;;;;;;;;;;;16.50;99.90;;;;;;4590534;19;19938;-21
2023/04/24 01:34:24;;;;;;;;;;;16.50;99.90;;;;;;4592656;19;19919;-21
2023/04/24 01:35:55;;;;;;;;;;;16.50;99.90;;;;;;4593055;19;19911;-21
2023/04/24 01:37:27;;;;;;;;;;;16.50;99.90;;;;;;4594032;19;20325;-21
2023/04/24 01:38:57;;;;;;;;;;;16.50;99.90;;;;;;4591832;19;19919;-21
2023/04/24 01:40:28;;;;;;;;;;;16.50;99.90;;;;;;4592592;19;19974;-22
2023/04/24 01:42:00;;;;;;;;;;;16.50;99.90;;;;;;4592542;19;19922;-21
2023/04/24 01:43:33;;;;;;;;;;;16.50;99.90;;;;;;4592963;19;19915;-21
2023/04/24 01:45:05;;;;;;;;;;;16.50;99.90;;;;;;4591521;19;20341;-22
2023/04/24 01:46:36;;;;;;;;;;;16.40;99.90;;;;;;4592902;19;19926;-22
2023/04/24 01:48:07;;;;;;;;;;;16.40;99.90;;;;;;4592033;19;19942;-21
2023/04/24 01:49:38;;;;;;;;;;;16.50;99.90;;;;;;4592232;19;19915;-22
2023/04/24 01:51:10;;;;;;;;;;;16.50;99.90;;;;;;4591526;19;19982;-21
2023/04/24 01:52:41;;;;;;;;;;;16.50;99.90;;;;;;4590154;19;19947;-21
2023/04/24 01:54:12;;;;;;;;;;;16.50;99.90;;;;;;4592722;19;19919;-22
2023/04/24 01:55:43;;;;;;;;;;;16.40;99.90;;;;;;4592146;19;19919;-22
2023/04/24 01:57:15;;;;;;;;;;;16.50;99.90;;;;;;4593046;19;20332;-21
2023/04/24 01:58:46;;;;;;;;;;;16.40;99.90;;;;;;4590438;19;19926;-25
2023/04/24 02:00:18;;;;;;;;;;;16.50;99.90;;;;;;4592297;19;19922;-23
2023/04/24 02:01:49;;;;;;;;;;;16.50;99.90;;;;;;4591376;19;19988;-22
2023/04/24 02:03:20;;;;;;;;;;;16.40;99.90;;;;;;4592645;19;19919;-25
2023/04/24 02:04:51;;;;;;;;;;;16.50;99.90;;;;;;4593099;19;19961;-22
2023/04/24 02:06:23;;;;;;;;;;;16.40;99.90;;;;;;4592745;19;19918;-23
2023/04/24 02:07:54;;;;;;;;;;;16.40;99.90;;;;;;4592711;19;19974;-22
2023/04/24 02:09:26;;;;;;;;;;;16.40;99.90;;;;;;4593414;19;19982;-21
2023/04/24 02:11:01;;;;;;;;;;;16.40;99.90;;;;;;4593634;19;19939;-22
2023/04/24 02:12:35;;;;;;;;;;;16.40;99.90;;;;;;4592159;19;20321;-22
2023/04/24 02:14:07;;;;;;;;;;;16.40;99.90;;;;;;4592715;19;19926;-22
2023/04/24 02:15:37;;;;;;;;;;;16.40;99.90;;;;;;4593281;19;20286;-21
2023/04/24 02:17:08;;;;;;;;;;;16.40;99.90;;;;;;4593489;19;19918;-22
2023/04/24 02:18:40;;;;;;;;;;;16.40;99.90;;;;;;4592426;19;19926;-22
2023/04/24 02:20:11;;;;;;;;;;;16.40;99.90;;;;;;4592350;19;19919;-21
2023/04/24 02:21:42;;;;;;;;;;;16.40;99.90;;;;;;4592931;19;19914;-23
2023/04/24 02:23:15;;;;;;;;;;;16.40;99.90;;;;;;4592848;19;19939;-22
2023/04/24 02:24:48;;;;;;;;;;;16.40;99.90;;;;;;4592096;19;19922;-22
2023/04/24 02:26:19;;;;;;;;;;;16.40;99.90;;;;;;4592178;19;20326;-22
2023/04/24 02:27:51;;;;;;;;;;;16.40;99.90;;;;;;4592187;19;19923;-22
2023/04/24 02:29:22;;;;;;;;;;;16.40;99.90;;;;;;4592584;19;20329;-22
2023/04/24 02:30:55;;;;;;;;;;;16.40;99.90;;;;;;4592572;19;19952;-21
2023/04/24 02:32:26;;;;;;;;;;;16.40;99.90;;;;;;4589040;19;20238;-21
2023/04/24 02:33:57;;;;;;;;;;;16.40;99.90;;;;;;4592820;19;19929;-21
2023/04/24 02:35:28;;;;;;;;;;;16.40;99.90;;;;;;4592169;19;19918;-21
2023/04/24 02:37:00;;;;;;;;;;;16.40;99.90;;;;;;4592533;19;20324;-22
2023/04/24 02:38:31;;;;;;;;;;;16.40;99.90;;;;;;4592603;19;19943;-21
2023/04/24 02:40:06;;;;;;;;;;;16.40;99.90;;;;;;4592374;19;19911;-23
2023/04/24 02:41:37;;;;;;;;;;;16.40;99.90;;;;;;4592176;19;19934;-22
2023/04/24 02:43:08;;;;;;;;;;;16.40;99.90;;;;;;4591142;19;20024;-21
2023/04/24 02:44:39;;;;;;;;;;;16.40;99.90;;;;;;4592124;19;20227;-22
2023/04/24 02:46:11;;;;;;;;;;;16.40;99.90;;;;;;4592642;19;19982;-22
2023/04/24 02:47:42;;;;;;;;;;;16.40;99.90;;;;;;4591923;19;20318;-22
2023/04/24 02:49:14;;;;;;;;;;;16.40;99.90;;;;;;4592295;19;19918;-21
2023/04/24 02:50:45;;;;;;;;;;;16.40;99.90;;;;;;4592255;19;19938;-24
2023/04/24 02:52:16;;;;;;;;;;;16.40;99.90;;;;;;4591682;19;19918;-21
2023/04/24 02:53:47;;;;;;;;;;;16.30;99.90;;;;;;4591661;19;20270;-22
2023/04/24 02:55:18;;;;;;;;;;;16.40;99.90;;;;;;4592544;19;19914;-23
2023/04/24 02:56:50;;;;;;;;;;;16.30;99.90;;;;;;4592045;19;19978;-23
2023/04/24 02:58:21;;;;;;;;;;;16.40;99.90;;;;;;4591067;19;20257;-22
2023/04/24 02:59:52;;;;;;;;;;;16.40;99.90;;;;;;4591477;19;19910;-21
2023/04/24 03:01:23;;;;;;;;;;;16.30;99.90;;;;;;4592468;19;20237;-23
2023/04/24 03:02:54;;;;;;;;;;;16.40;99.90;;;;;;4592390;19;19918;-22
2023/04/24 03:04:25;;;;;;;;;;;16.40;99.90;;;;;;4591687;19;19942;-22
2023/04/24 03:05:57;;;;;;;;;;;16.40;99.90;;;;;;4590511;19;19911;-22
2023/04/24 03:07:28;;;;;;;;;;;16.40;99.90;;;;;;4591494;19;19915;-23
2023/04/24 03:08:59;;;;;;;;;;;16.40;99.90;;;;;;4592441;19;19919;-22
2023/04/24 03:10:32;;;;;;;;;;;16.40;99.90;;;;;;4591644;19;19942;-22
2023/04/24 03:12:02;;;;;;;;;;;16.40;99.90;;;;;;4590017;19;19931;-22
2023/04/24 03:13:34;;;;;;;;;;;16.40;99.90;;;;;;4591609;19;20340;-22
2023/04/24 03:15:05;;;;;;;;;;;16.30;99.90;;;;;;4591344;19;19915;-22
2023/04/24 03:16:38;;;;;;;;;;;16.40;99.90;;;;;;4591364;19;19911;-21
2023/04/24 03:18:09;;;;;;;;;;;16.40;99.90;;;;;;4591823;19;19915;-22
2023/04/24 03:19:40;;;;;;;;;;;16.40;99.90;;;;;;4591598;19;19917;-22
2023/04/24 03:21:11;;;;;;;;;;;16.40;99.90;;;;;;4590739;19;19977;-21
2023/04/24 03:22:42;;;;;;;;;;;16.30;99.90;;;;;;4590453;19;19915;-21
2023/04/24 03:24:15;;;;;;;;;;;16.30;99.90;;;;;;4591246;19;19919;-22
2023/04/24 03:25:48;;;;;;;;;;;16.40;99.90;;;;;;4591532;19;19915;-22
2023/04/24 03:27:19;;;;;;;;;;;16.30;99.90;;;;;;4591078;19;19925;-22
2023/04/24 03:28:50;;;;;;;;;;;16.40;99.90;;;;;;4591624;19;19932;-21
2023/04/24 03:30:25;;;;;;;;;;;16.30;99.90;;;;;;4589736;19;20028;-22
2023/04/24 03:31:56;;;;;;;;;;;16.40;99.90;;;;;;4591082;19;19915;-21
2023/04/24 03:33:27;;;;;;;;;;;16.30;99.90;;;;;;4591037;19;20253;-22
2023/04/24 03:34:58;;;;;;;;;;;16.30;99.90;;;;;;4591328;19;19962;-22
2023/04/24 03:36:30;;;;;;;;;;;16.30;99.90;;;;;;4591350;19;20344;-22
2023/04/24 03:38:01;;;;;;;;;;;16.30;99.90;;;;;;4589441;19;19931;-22
2023/04/24 03:39:32;;;;;;;;;;;16.40;99.90;;;;;;4590150;19;19907;-22
2023/04/24 03:41:03;;;;;;;;;;;16.30;99.90;;;;;;4590185;19;19911;-25
2023/04/24 03:42:34;;;;;;;;;;;16.30;99.90;;;;;;4590840;19;19914;-22
2023/04/24 03:44:05;;;;;;;;;;;16.30;99.90;;;;;;4589387;19;19940;-21
2023/04/24 03:45:38;;;;;;;;;;;16.30;99.90;;;;;;4590553;19;19929;-22
2023/04/24 03:47:09;;;;;;;;;;;16.30;99.90;;;;;;4589199;19;19935;-22
2023/04/24 03:48:41;;;;;;;;;;;16.30;99.90;;;;;;4590063;19;19938;-22
2023/04/24 03:50:12;;;;;;;;;;;16.30;99.90;;;;;;4590071;19;19914;-22
2023/04/24 03:51:46;;;;;;;;;;;16.30;99.90;;;;;;4589870;19;19918;-22
2023/04/24 03:53:17;;;;;;;;;;;16.40;99.90;;;;;;4587998;19;19994;-22
2023/04/24 03:54:48;;;;;;;;;;;16.30;99.90;;;;;;4589211;19;19919;-21
2023/04/24 03:56:19;;;;;;;;;;;16.30;99.90;;;;;;4590564;19;20325;-22
2023/04/24 03:57:51;;;;;;;;;;;16.30;99.90;;;;;;4590219;19;19978;-21
2023/04/24 03:59:22;;;;;;;;;;;16.30;99.90;;;;;;4591242;19;19918;-22
2023/04/24 04:00:53;;;;;;;;;;;16.30;99.90;;;;;;4590185;19;19929;-22
2023/04/24 04:02:24;;;;;;;;;;;16.30;99.90;;;;;;4590584;19;19967;-22
2023/04/24 04:03:55;;;;;;;;;;;16.30;99.90;;;;;;4590369;19;19919;-26
2023/04/24 04:05:28;;;;;;;;;;;16.30;99.90;;;;;;4590337;19;19915;-22
2023/04/24 04:07:02;;;;;;;;;;;16.30;99.90;;;;;;4590747;19;20314;-22
2023/04/24 04:08:33;;;;;;;;;;;16.30;99.90;;;;;;4589721;19;19911;-21
2023/04/24 04:10:06;;;;;;;;;;;16.30;99.90;;;;;;4590053;19;19922;-21
2023/04/24 04:11:37;;;;;;;;;;;16.30;99.90;;;;;;4589797;19;19926;-21
2023/04/24 04:13:09;;;;;;;;;;;16.40;99.90;;;;;;4589065;19;19975;-22
2023/04/24 04:14:40;;;;;;;;;;;16.30;99.90;;;;;;4590030;19;19978;-22
2023/04/24 04:16:11;;;;;;;;;;;16.30;99.90;;;;;;4590105;19;19918;-23
2023/04/24 04:17:42;;;;;;;;;;;16.30;99.90;;;;;;4590484;19;19915;-21
2023/04/24 04:19:13;;;;;;;;;;;16.30;99.90;;;;;;4590470;19;20241;-21
2023/04/24 04:20:44;;;;;;;;;;;16.30;99.90;;;;;;4590077;19;20245;-22
2023/04/24 04:22:15;;;;;;;;;;;16.30;99.90;;;;;;4590112;19;19952;-23
2023/04/24 04:24:05;;;;;;;;;;;16.30;99.90;;;;;;4589696;19;20365;-21
2023/04/24 04:25:36;;;;;;;;;;;16.30;99.90;;;;;;4589447;19;19931;-21
2023/04/24 04:27:08;;;;;;;;;;;16.30;99.90;;;;;;4590047;19;19923;-21
2023/04/24 04:28:39;;;;;;;;;;;16.30;99.90;;;;;;4590043;19;19918;-23
2023/04/24 04:30:10;;;;;;;;;;;16.30;99.90;;;;;;4589817;19;19923;-22
2023/04/24 04:31:42;;;;;;;;;;;16.30;99.90;;;;;;4589554;19;19919;-24
2023/04/24 04:33:14;;;;;;;;;;;16.30;99.90;;;;;;4589229;19;20349;-22
2023/04/24 04:34:49;;;;;;;;;;;16.30;99.90;;;;;;4590312;19;19943;-21
2023/04/24 04:36:20;;;;;;;;;;;16.30;99.90;;;;;;4588544;19;19915;-22
2023/04/24 04:37:51;;;;;;;;;;;16.30;99.90;;;;;;4589486;19;20330;-22
2023/04/24 04:39:22;;;;;;;;;;;16.30;99.90;;;;;;4590162;19;20473;-22
2023/04/24 04:40:57;;;;;;;;;;;16.30;99.90;;;;;;4590734;19;19923;-24
2023/04/24 04:42:28;;;;;;;;;;;16.30;99.90;;;;;;4588724;19;20361;-22
2023/04/24 04:43:59;;;;;;;;;;;16.30;99.90;;;;;;4589419;19;19915;-21
2023/04/24 04:45:30;;;;;;;;;;;16.30;99.90;;;;;;4590068;19;19918;-21
2023/04/24 04:47:05;;;;;;;;;;;16.30;99.90;;;;;;4590111;19;19915;-21
2023/04/24 04:48:37;;;;;;;;;;;16.30;99.90;;;;;;4589242;19;20001;-22
2023/04/24 04:50:09;;;;;;;;;;;16.30;99.90;;;;;;4588518;19;20321;-23
2023/04/24 04:51:40;;;;;;;;;;;16.30;99.90;;;;;;4588061;19;20372;-21
2023/04/24 04:53:11;;;;;;;;;;;16.30;99.90;;;;;;4588523;19;19919;-22
2023/04/24 04:54:42;;;;;;;;;;;16.30;99.90;;;;;;4589874;19;19919;-22
2023/04/24 04:56:13;;;;;;;;;;;16.40;99.90;;;;;;4593459;19;19925;-21
2023/04/24 04:57:44;;;;;;;;;;;16.40;99.90;;;;;;4594599;19;19919;-24
2023/04/24 04:59:15;;;;;;;;;;;16.30;99.90;;;;;;4593886;19;19938;-21
2023/04/24 05:00:46;;;;;;;;;;;16.40;99.90;;;;;;4594158;19;19966;-21
2023/04/24 05:02:16;;;;;;;;;;;16.40;99.90;;;;;;4594135;19;19923;-21
2023/04/24 05:03:48;;;;;;;;;;;16.40;99.90;;;;;;4593172;19;19919;-22
2023/04/24 05:05:19;;;;;;;;;;;16.30;99.90;;;;;;4593475;19;20304;-22
2023/04/24 05:06:51;;;;;;;;;;;16.30;99.90;;;;;;4593040;19;19930;-22
2023/04/24 05:08:22;;;;;;;;;;;16.30;99.90;;;;;;4594117;19;19915;-22
2023/04/24 05:09:53;;;;;;;;;;;16.30;99.90;;;;;;4594153;19;19917;-23
2023/04/24 05:11:26;;;;;;;;;;;16.30;99.90;;;;;;4593628;19;19946;-22
2023/04/24 05:12:58;;;;;;;;;;;16.30;99.90;;;;;;4591470;19;19923;-23
2023/04/24 05:14:29;;;;;;;;;;;16.40;99.90;;;;;;4592927;19;19918;-21
2023/04/24 05:16:00;;;;;;;;;;;16.30;99.90;;;;;;4593515;19;19918;-21
2023/04/24 05:17:32;;;;;;;;;;;16.30;99.90;;;;;;4593897;19;19935;-22
2023/04/24 05:19:04;;;;;;;;;;;16.30;99.90;;;;;;4593136;19;19974;-23
2023/04/24 05:20:35;;;;;;;;;;;16.30;99.90;;;;;;4593324;19;19931;-20
2023/04/24 05:22:07;;;;;;;;;;;16.30;99.90;;;;;;4592691;19;19922;-22
2023/04/24 05:23:38;;;;;;;;;;;16.30;99.90;;;;;;4593523;19;19919;-21
2023/04/24 05:25:12;;;;;;;;;;;16.40;99.90;;;;;;4593481;19;19911;-22
2023/04/24 05:26:43;;;;;;;;;;;16.30;99.90;;;;;;4592030;19;19915;-21
2023/04/24 05:28:15;;;;;;;;;;;16.30;99.90;;;;;;4592522;19;19919;-22
2023/04/24 05:29:46;;;;;;;;;;;16.30;99.90;;;;;;4593480;19;19919;-22
2023/04/24 05:31:17;;;;;;;;;;;16.40;99.90;;;;;;4593022;19;19914;-21
2023/04/24 05:32:50;;;;;;;;;;;16.40;99.90;;;;;;4592500;19;20242;-20
2023/04/24 05:34:21;;;;;;;;;;;16.50;99.90;;;;;;4592973;19;19967;-21
2023/04/24 05:35:53;;;;;;;;;;;16.50;99.90;;;;;;4593379;19;20253;-21
2023/04/24 05:37:24;;;;;;;;;;;16.50;99.90;;;;;;4593244;19;20345;-22
2023/04/24 05:38:55;;;;;;;;;;;16.50;99.90;;;;;;4591862;19;19911;-21
2023/04/24 05:40:27;;;;;;;;;;;16.60;99.90;;;;;;4592116;19;19923;-22
2023/04/24 05:41:58;;;;;;;;;;;16.60;99.90;;;;;;4593185;19;19915;-22
2023/04/24 05:43:29;;;;;;;;;;;16.70;99.90;;;;;;4593258;19;19985;-21
2023/04/24 05:45:00;;;;;;;;;;;16.70;99.90;;;;;;4593172;19;20365;-22
2023/04/24 05:46:31;;;;;;;;;;;16.70;99.90;;;;;;4593221;19;19910;-22
2023/04/24 05:48:03;;;;;;;;;;;16.70;99.90;;;;;;4593286;19;20251;-21
2023/04/24 05:49:34;;;;;;;;;;;16.80;99.90;;;;;;4593941;19;19942;-23
2023/04/24 05:51:06;;;;;;;;;;;16.80;99.90;;;;;;4592801;19;19915;-22
2023/04/24 05:52:37;;;;;;;;;;;16.80;99.90;;;;;;4592481;19;19946;-22
2023/04/24 05:54:08;;;;;;;;;;;16.90;99.90;;;;;;4592275;19;19923;-22
2023/04/24 05:55:40;;;;;;;;;;;16.90;99.90;;;;;;4592602;19;19919;-22
2023/04/24 05:57:11;;;;;;;;;;;16.90;99.90;;;;;;4592953;19;19915;-22
2023/04/24 05:58:42;;;;;;;;;;;16.90;99.90;;;;;;4591880;19;19919;-22
2023/04/24 06:00:13;;;;;;;;;;;16.90;99.90;;;;;;4570486;19;19921;-22
2023/04/24 06:01:44;;;;;;;;;;;16.90;99.90;;;;;;4591568;19;19919;-22
2023/04/24 06:03:15;;;;;;;;;;;16.90;99.90;;;;;;4591852;19;20350;-21
2023/04/24 06:04:46;;;;;;;;;;;16.90;99.90;;;;;;4593024;19;19925;-25
2023/04/24 06:06:19;;;;;;;;;;;16.90;99.90;;;;;;4593170;19;19911;-21
2023/04/24 06:07:50;;;;;;;;;;;16.90;99.90;;;;;;4591628;19;19914;-22
2023/04/24 06:09:22;;;;;;;;;;;16.90;99.90;;;;;;4591651;19;19976;-22
2023/04/24 06:10:53;;;;;;;;;;;16.90;99.90;;;;;;4591932;19;19915;-22
2023/04/24 06:12:25;;;;;;;;;;;16.90;99.90;;;;;;4592872;19;20304;-22
2023/04/24 06:13:59;;;;;;;;;;;16.90;99.90;;;;;;4593015;19;19927;-22
2023/04/24 06:15:33;;;;;;;;;;;17.00;99.90;;;;;;4591501;19;19930;-22
2023/04/24 06:17:04;;;;;;;;;;;16.90;99.90;;;;;;4592155;19;20245;-22
2023/04/24 06:18:35;;;;;;;;;;;16.90;99.90;;;;;;4593167;19;19915;-22
2023/04/24 06:20:10;;;;;;;;;;;16.90;99.90;;;;;;4592574;19;19919;-21
2023/04/24 06:21:44;;;;;;;;;;;17.00;99.90;;;;;;4592811;19;19918;-22
2023/04/24 06:23:18;;;;;;;;;;;17.00;99.90;;;;;;4592442;19;19934;-22
2023/04/24 06:24:49;;;;;;;;;;;17.00;99.90;;;;;;4593113;19;19911;-21
2023/04/24 06:26:21;;;;;;;;;;;17.00;99.90;;;;;;4592454;19;19918;-23
2023/04/24 06:27:52;;;;;;;;;;;17.00;99.90;;;;;;4591468;19;19925;-22
2023/04/24 06:29:27;;;;;;;;;;;17.20;99.90;;;;;;4592092;19;19922;-22
2023/04/24 06:30:58;;;;;;;;;;;17.30;99.90;;;;;;4592037;19;19915;-21
2023/04/24 06:32:30;;;;;;;;;;;17.30;99.90;;;;;;4591694;19;20345;-22
2023/04/24 06:34:01;;;;;;;;;;;17.30;99.90;;;;;;4592826;19;20377;-22
2023/04/24 06:35:33;;;;;;;;;;;17.30;99.90;;;;;;4592877;19;20240;-23
2023/04/24 06:37:03;;;;;;;;;;;17.30;99.90;;;;;;4592112;19;19922;-22
2023/04/24 06:38:34;;;;;;;;;;;17.30;99.90;;;;;;4592480;19;20248;-22
2023/04/24 06:40:06;;;;;;;;;;;17.30;99.90;;;;;;4592684;19;19923;-21
2023/04/24 06:41:39;;;;;;;;;;;17.30;99.90;;;;;;4591635;19;20329;-22
2023/04/24 06:43:14;;;;;;;;;;;17.20;99.90;;;;;;4590883;19;19911;-23
2023/04/24 06:44:45;;;;;;;;;;;17.20;99.90;;;;;;4591957;19;19926;-22
2023/04/24 06:46:22;;;;;;;;;;;17.20;99.90;;;;;;4592850;19;19922;-25
2023/04/24 06:49:42;;;;;;;;;;;17.20;99.90;;;;;;4592237;19;19919;-22
2023/04/24 06:51:13;;;;;;;;;;;17.10;99.90;;;;;;4591496;19;19918;-22
2023/04/24 06:52:45;;;;;;;;;;;17.10;99.90;;;;;;4591599;19;20305;-22
2023/04/24 06:54:17;;;;;;;;;;;17.10;99.90;;;;;;4592597;19;19922;-22
2023/04/24 06:55:48;;;;;;;;;;;17.10;99.90;;;;;;4591823;19;19946;-25
2023/04/24 06:57:20;;;;;;;;;;;17.10;99.90;;;;;;4591975;19;19923;-21
2023/04/24 06:58:53;;;;;;;;;;;17.10;99.90;;;;;;4591296;19;19941;-22
2023/04/24 07:00:27;;;;;;;;;;;17.10;99.90;;;;;;4590878;19;19918;-22
2023/04/24 07:02:02;;;;;;;;;;;17.20;99.90;;;;;;4590417;19;19911;-22
2023/04/24 07:03:35;;;;;;;;;;;17.10;99.90;;;;;;4591715;19;20225;-25
2023/04/24 07:05:09;;;;;;;;;;;17.10;99.90;;;;;;4591885;19;19938;-22
2023/04/24 07:06:40;;;;;;;;;;;17.10;99.90;;;;;;4590402;19;19991;-22
2023/04/24 07:08:11;;;;;;;;;;;17.10;99.90;;;;;;4590972;19;19926;-23
2023/04/24 07:09:45;;;;;;;;;;;17.10;99.90;;;;;;4591344;19;19919;-22
2023/04/24 07:11:17;;;;;;;;;;;17.10;99.90;;;;;;4591568;19;19926;-22
2023/04/24 07:12:49;;;;;;;;;;;17.10;99.90;;;;;;4591368;19;20321;-23
2023/04/24 07:14:22;;;;;;;;;;;17.10;99.90;;;;;;4591529;19;19938;-21
2023/04/24 07:15:53;;;;;;;;;;;17.20;99.90;;;;;;4591574;19;19931;-23
2023/04/24 07:17:25;;;;;;;;;;;17.20;99.90;;;;;;4591820;19;19918;-22
2023/04/24 07:18:59;;;;;;;;;;;17.20;99.90;;;;;;4590669;19;19922;-22
2023/04/24 07:20:37;;;;;;;;;;;17.20;99.90;;;;;;4591553;19;19915;-22
2023/04/24 07:22:08;;;;;;;;;;;17.20;99.90;;;;;;4590013;19;19952;-25
2023/04/24 07:23:42;;;;;;;;;;;17.20;99.90;;;;;;4590938;19;19919;-21
2023/04/24 07:25:15;;;;;;;;;;;17.30;99.90;;;;;;4590530;19;19911;-22
2023/04/24 07:26:46;;;;;;;;;;;17.30;99.90;;;;;;4590743;19;20238;-23
2023/04/24 07:28:17;;;;;;;;;;;17.30;99.90;;;;;;4591219;19;19921;-22
2023/04/24 07:29:48;;;;;;;;;;;17.20;99.90;;;;;;4591396;19;19919;-21
2023/04/24 07:31:21;;;;;;;;;;;17.20;99.90;;;;;;4590932;19;19925;-26
2023/04/24 07:32:52;;;;;;;;;;;17.30;99.90;;;;;;4590213;19;19907;-22
2023/04/24 07:34:24;;;;;;;;;;;17.30;99.90;;;;;;4591291;19;19930;-23
2023/04/24 07:35:56;;;;;;;;;;;17.30;99.90;;;;;;4590494;19;19923;-21
2023/04/24 07:37:27;;;;;;;;;;;17.30;99.90;;;;;;4590576;19;19918;-24
2023/04/24 07:38:58;;;;;;;;;;;17.30;99.90;;;;;;4590138;19;19932;-21
2023/04/24 07:40:30;;;;;;;;;;;17.40;99.90;;;;;;4590860;19;19915;-22
2023/04/24 07:42:03;;;;;;;;;;;17.40;99.90;;;;;;4590862;19;19911;-22
2023/04/24 07:43:38;;;;;;;;;;;17.40;99.90;;;;;;4590846;19;19940;-23
2023/04/24 07:45:09;;;;;;;;;;;17.40;99.90;;;;;;4590910;19;19930;-21
2023/04/24 07:46:40;;;;;;;;;;;17.40;99.90;;;;;;4591637;19;19974;-22
2023/04/24 07:48:14;;;;;;;;;;;17.40;99.90;;;;;;4590781;19;20290;-22
2023/04/24 07:49:45;;;;;;;;;;;17.40;99.90;;;;;;4590946;19;19915;-22
2023/04/24 07:51:18;;;;;;;;;;;17.40;99.90;;;;;;4590530;19;20329;-23
2023/04/24 07:52:52;;;;;;;;;;;17.40;99.90;;;;;;4590210;19;19915;-22
2023/04/24 07:54:23;;;;;;;;;;;17.40;99.90;;;;;;4591051;19;20329;-24
2023/04/24 07:55:55;;;;;;;;;;;17.40;99.90;;;;;;4590769;19;19934;-22
2023/04/24 07:57:27;;;;;;;;;;;17.40;99.90;;;;;;4589538;19;19918;-21
2023/04/24 07:58:58;;;;;;;;;;;17.50;99.90;;;;;;4589134;19;20253;-22
2023/04/24 08:00:29;;;;;;;;;;;17.50;99.90;;;;;;4590403;19;20270;-22
2023/04/24 08:02:01;;;;;;;;;;;17.50;99.90;;;;;;4589443;19;19918;-22
2023/04/24 08:03:33;;;;;;;;;;;17.50;99.90;;;;;;4590202;19;19922;-22
2023/04/24 08:05:04;;;;;;;;;;;17.50;99.90;;;;;;4591554;19;20257;-22
2023/04/24 08:06:35;;;;;;;;;;;17.50;99.90;;;;;;4590549;19;19926;-22
2023/04/24 08:08:06;;;;;;;;;;;17.60;99.90;;;;;;4589413;19;19922;-21
2023/04/24 08:09:38;;;;;;;;;;;17.50;99.90;;;;;;4590699;19;19914;-22
2023/04/24 08:11:09;;;;;;;;;;;17.50;99.90;;;;;;4591478;19;20334;-21
2023/04/24 08:12:43;;;;;;;;;;;17.40;99.90;;;;;;4588631;19;19926;-22
2023/04/24 08:14:14;;;;;;;;;;;17.40;99.90;;;;;;4589927;19;19973;-21
2023/04/24 08:15:45;;;;;;;;;;;17.40;99.90;;;;;;4590146;19;19938;-22
2023/04/24 08:17:17;;;;;;;;;;;17.40;99.90;;;;;;4589051;19;20314;-22
2023/04/24 08:18:48;;;;;;;;;;;17.40;99.90;;;;;;4590027;19;19922;-21
2023/04/24 08:20:19;;;;;;;;;;;17.10;99.90;;;;;;4590718;19;19938;-22
2023/04/24 08:21:50;;;;;;;;;;;17.00;99.90;;;;;;4590993;19;19919;-22
2023/04/24 08:23:21;;;;;;;;;;;17.00;99.90;;;;;;4590173;19;20230;-21
2023/04/24 08:24:56;;;;;;;;;;;17.10;99.90;;;;;;4590258;19;19919;-22
2023/04/24 08:26:31;;;;;;;;;;;17.20;99.90;;;;;;4590322;19;19953;-22
2023/04/24 08:28:05;;;;;;;;;;;17.30;99.90;;;;;;4590788;19;19911;-22
2023/04/24 08:29:36;;;;;;;;;;;17.40;99.90;;;;;;4589997;19;19942;-22
2023/04/24 08:31:08;;;;;;;;;;;17.40;99.90;;;;;;4594568;19;19915;-22
2023/04/24 08:32:40;;;;;;;;;;;17.40;99.90;;;;;;4594546;19;19971;-22
2023/04/24 08:34:11;;;;;;;;;;;17.50;99.90;;;;;;4595704;19;19979;-21
2023/04/24 08:35:43;;;;;;;;;;;17.50;99.90;;;;;;4593614;19;19923;-21
2023/04/24 08:37:16;;;;;;;;;;;17.50;99.90;;;;;;4594517;19;20296;-22
2023/04/24 09:03:00;;;;;;;;;;;17.90;99.90;;;;;;4588709;19;19911;-21
2023/04/24 09:04:31;;;;;;;;;;;17.90;99.90;;;;;;4593173;19;19919;-21
2023/04/24 09:06:02;;;;;;;;;;;17.80;99.90;;;;;;4593663;19;19974;-22
2023/04/24 09:09:38;;;;;;;;;;;17.90;99.90;;;;;;4594376;19;19914;-22
2023/04/24 09:11:09;;;;;;;;;;;17.90;99.90;;;;;;4593801;19;19930;-21
2023/04/24 09:12:41;;;;;;;;;;;17.90;99.90;;;;;;4593010;19;19927;-22
2023/04/24 09:14:12;;;;;;;;;;;17.90;99.90;;;;;;4593928;19;20302;-24
2023/04/24 09:15:43;;;;;;;;;;;16.90;99.90;;;;;;4593202;19;19947;-21
2023/04/24 09:17:14;;;;;;;;;;;16.10;99.90;;;;;;4592893;19;19930;-21
2023/04/24 09:18:45;;;;;;;;;;;15.80;99.90;;;;;;4593400;19;19922;-21
2023/04/24 09:20:17;;;;;;;;;;;15.80;99.90;;;;;;4594753;19;19930;-21
2023/04/24 09:21:48;;;;;;;;;;;15.80;99.90;;;;;;4593965;19;19925;-22